sensor_id;sensor_type;location;lat;lon;timestamp;P1;durP1;ratioP1;P2;durP2;ratioP2
16029;SDS011;34770;49.272;11.070;2023-04-22T00:01:30;6.53;;;5.75;;
16029;SDS011;34770;49.272;11.070;2023-04-22T00:03:56;7.05;;;5.47;;
16029;SDS011;34770;49.272;11.070;2023-04-22T00:06:21;5.45;;;4.93;;
16029;SDS011;34770;49.272;11.070;2023-04-22T00:08:47;5.97;;;5.15;;
16029;SDS011;34770;49.272;11.070;2023-04-22T00:11:12;5.63;;;5.10;;
16029;SDS011;34770;49.272;11.070;2023-04-22T00:13:38;4.90;;;4.40;;
16029;SDS011;34770;49.272;11.070;2023-04-22T00:16:04;6.43;;;5.43;;
16029;SDS011;34770;49.272;11.070;2023-04-22T00:18:29;7.72;;;5.18;;
16029;SDS011;34770;49.272;11.070;2023-04-22T00:20:54;5.68;;;4.13;;
16029;SDS011;34770;49.272;11.070;2023-04-22T00:23:20;7.05;;;4.90;;
16029;SDS011;34770;49.272;11.070;2023-04-22T00:25:45;5.03;;;4.63;;
16029;SDS011;34770;49.272;11.070;2023-04-22T00:28:11;5.30;;;4.50;;
16029;SDS011;34770;49.272;11.070;2023-04-22T00:30:36;5.63;;;4.90;;
16029;SDS011;34770;49.272;11.070;2023-04-22T00:33:02;4.53;;;4.03;;
16029;SDS011;34770;49.272;11.070;2023-04-22T00:35:28;6.30;;;5.25;;
16029;SDS011;34770;49.272;11.070;2023-04-22T00:37:53;5.22;;;4.65;;
16029;SDS011;34770;49.272;11.070;2023-04-22T00:40:19;6.15;;;4.80;;
16029;SDS011;34770;49.272;11.070;2023-04-22T00:42:45;5.53;;;4.78;;
16029;SDS011;34770;49.272;11.070;2023-04-22T00:45:14;5.50;;;4.88;;
16029;SDS011;34770;49.272;11.070;2023-04-22T00:47:43;6.10;;;5.43;;
16029;SDS011;34770;49.272;11.070;2023-04-22T00:50:09;7.40;;;5.40;;
16029;SDS011;34770;49.272;11.070;2023-04-22T00:52:35;8.27;;;4.82;;
16029;SDS011;34770;49.272;11.070;2023-04-22T00:55:00;6.05;;;4.47;;
16029;SDS011;34770;49.272;11.070;2023-04-22T00:57:26;6.00;;;5.40;;
16029;SDS011;34770;49.272;11.070;2023-04-22T00:59:54;7.57;;;4.80;;
16029;SDS011;34770;49.272;11.070;2023-04-22T01:02:20;5.07;;;4.57;;
16029;SDS011;34770;49.272;11.070;2023-04-22T01:04:46;6.47;;;5.47;;
16029;SDS011;34770;49.272;11.070;2023-04-22T01:07:12;6.50;;;5.55;;
16029;SDS011;34770;49.272;11.070;2023-04-22T01:09:37;5.00;;;4.50;;
16029;SDS011;34770;49.272;11.070;2023-04-22T01:12:04;4.80;;;4.35;;
16029;SDS011;34770;49.272;11.070;2023-04-22T01:14:30;5.28;;;4.78;;
16029;SDS011;34770;49.272;11.070;2023-04-22T01:16:55;7.22;;;5.70;;
16029;SDS011;34770;49.272;11.070;2023-04-22T01:19:21;11.50;;;6.22;;
16029;SDS011;34770;49.272;11.070;2023-04-22T01:21:48;6.75;;;5.05;;
16029;SDS011;34770;49.272;11.070;2023-04-22T01:24:15;5.03;;;4.47;;
16029;SDS011;34770;49.272;11.070;2023-04-22T01:26:41;5.75;;;5.20;;
16029;SDS011;34770;49.272;11.070;2023-04-22T01:29:07;5.93;;;4.57;;
16029;SDS011;34770;49.272;11.070;2023-04-22T01:31:32;5.95;;;4.45;;
16029;SDS011;34770;49.272;11.070;2023-04-22T01:33:58;5.40;;;4.90;;
16029;SDS011;34770;49.272;11.070;2023-04-22T01:36:24;4.90;;;4.38;;
16029;SDS011;34770;49.272;11.070;2023-04-22T01:38:49;4.70;;;4.30;;
16029;SDS011;34770;49.272;11.070;2023-04-22T01:41:15;7.78;;;4.93;;
16029;SDS011;34770;49.272;11.070;2023-04-22T01:43:41;5.10;;;4.60;;
16029;SDS011;34770;49.272;11.070;2023-04-22T01:46:08;5.20;;;4.70;;
16029;SDS011;34770;49.272;11.070;2023-04-22T01:48:34;5.95;;;4.57;;
16029;SDS011;34770;49.272;11.070;2023-04-22T01:51:00;5.85;;;5.18;;
16029;SDS011;34770;49.272;11.070;2023-04-22T01:53:26;5.05;;;4.55;;
16029;SDS011;34770;49.272;11.070;2023-04-22T01:55:52;5.30;;;4.78;;
16029;SDS011;34770;49.272;11.070;2023-04-22T01:58:17;5.80;;;4.45;;
16029;SDS011;34770;49.272;11.070;2023-04-22T02:00:43;5.13;;;4.63;;
16029;SDS011;34770;49.272;11.070;2023-04-22T02:03:09;4.53;;;3.95;;
16029;SDS011;34770;49.272;11.070;2023-04-22T02:05:35;5.30;;;4.80;;
16029;SDS011;34770;49.272;11.070;2023-04-22T02:08:01;4.70;;;4.05;;
16029;SDS011;34770;49.272;11.070;2023-04-22T02:10:26;5.75;;;5.25;;
16029;SDS011;34770;49.272;11.070;2023-04-22T02:12:52;5.00;;;4.50;;
16029;SDS011;34770;49.272;11.070;2023-04-22T02:15:17;6.18;;;4.28;;
16029;SDS011;34770;49.272;11.070;2023-04-22T02:17:43;5.05;;;4.43;;
16029;SDS011;34770;49.272;11.070;2023-04-22T02:20:09;4.85;;;4.07;;
16029;SDS011;34770;49.272;11.070;2023-04-22T02:22:38;4.85;;;4.00;;
16029;SDS011;34770;49.272;11.070;2023-04-22T02:25:06;4.88;;;4.45;;
16029;SDS011;34770;49.272;11.070;2023-04-22T02:27:32;5.50;;;4.30;;
16029;SDS011;34770;49.272;11.070;2023-04-22T02:29:57;5.03;;;4.55;;
16029;SDS011;34770;49.272;11.070;2023-04-22T02:32:23;7.03;;;4.32;;
16029;SDS011;34770;49.272;11.070;2023-04-22T02:34:48;5.22;;;4.72;;
16029;SDS011;34770;49.272;11.070;2023-04-22T02:37:14;5.88;;;5.28;;
16029;SDS011;34770;49.272;11.070;2023-04-22T02:39:40;5.75;;;5.15;;
16029;SDS011;34770;49.272;11.070;2023-04-22T02:42:06;6.00;;;4.78;;
16029;SDS011;34770;49.272;11.070;2023-04-22T02:44:31;5.00;;;4.40;;
16029;SDS011;34770;49.272;11.070;2023-04-22T02:46:56;5.85;;;5.25;;
16029;SDS011;34770;49.272;11.070;2023-04-22T02:49:22;5.10;;;4.50;;
16029;SDS011;34770;49.272;11.070;2023-04-22T02:51:47;8.32;;;5.25;;
16029;SDS011;34770;49.272;11.070;2023-04-22T02:54:13;6.68;;;5.13;;
16029;SDS011;34770;49.272;11.070;2023-04-22T02:56:38;7.72;;;4.80;;
16029;SDS011;34770;49.272;11.070;2023-04-22T02:59:04;5.03;;;3.83;;
16029;SDS011;34770;49.272;11.070;2023-04-22T03:01:29;4.85;;;4.20;;
16029;SDS011;34770;49.272;11.070;2023-04-22T03:03:55;7.20;;;4.80;;
16029;SDS011;34770;49.272;11.070;2023-04-22T03:06:21;5.30;;;4.80;;
16029;SDS011;34770;49.272;11.070;2023-04-22T03:08:46;4.18;;;3.78;;
16029;SDS011;34770;49.272;11.070;2023-04-22T03:11:12;4.50;;;4.10;;
16029;SDS011;34770;49.272;11.070;2023-04-22T03:13:37;5.68;;;4.78;;
16029;SDS011;34770;49.272;11.070;2023-04-22T03:16:03;6.97;;;5.22;;
16029;SDS011;34770;49.272;11.070;2023-04-22T03:18:28;6.57;;;4.53;;
16029;SDS011;34770;49.272;11.070;2023-04-22T03:20:54;5.93;;;4.53;;
16029;SDS011;34770;49.272;11.070;2023-04-22T03:23:20;6.35;;;4.55;;
16029;SDS011;34770;49.272;11.070;2023-04-22T03:25:45;5.35;;;4.85;;
16029;SDS011;34770;49.272;11.070;2023-04-22T03:28:10;4.80;;;4.40;;
16029;SDS011;34770;49.272;11.070;2023-04-22T03:30:36;6.15;;;4.88;;
16029;SDS011;34770;49.272;11.070;2023-04-22T03:33:02;5.50;;;3.95;;
16029;SDS011;34770;49.272;11.070;2023-04-22T03:35:27;4.75;;;4.35;;
16029;SDS011;34770;49.272;11.070;2023-04-22T03:37:52;4.20;;;3.70;;
16029;SDS011;34770;49.272;11.070;2023-04-22T03:40:18;4.78;;;4.28;;
16029;SDS011;34770;49.272;11.070;2023-04-22T03:42:43;4.82;;;4.38;;
16029;SDS011;34770;49.272;11.070;2023-04-22T03:45:09;5.85;;;4.93;;
16029;SDS011;34770;49.272;11.070;2023-04-22T03:47:35;7.72;;;5.03;;
16029;SDS011;34770;49.272;11.070;2023-04-22T03:50:00;4.90;;;4.40;;
16029;SDS011;34770;49.272;11.070;2023-04-22T03:52:25;6.80;;;5.28;;
16029;SDS011;34770;49.272;11.070;2023-04-22T03:54:51;4.85;;;4.38;;
16029;SDS011;34770;49.272;11.070;2023-04-22T03:57:16;5.50;;;4.90;;
16029;SDS011;34770;49.272;11.070;2023-04-22T03:59:42;5.18;;;4.15;;
16029;SDS011;34770;49.272;11.070;2023-04-22T04:02:07;5.20;;;4.70;;
16029;SDS011;34770;49.272;11.070;2023-04-22T04:04:33;5.45;;;4.32;;
16029;SDS011;34770;49.272;11.070;2023-04-22T04:06:58;6.13;;;4.97;;
16029;SDS011;34770;49.272;11.070;2023-04-22T04:09:24;6.05;;;4.63;;
16029;SDS011;34770;49.272;11.070;2023-04-22T04:11:50;9.05;;;4.50;;
16029;SDS011;34770;49.272;11.070;2023-04-22T04:14:15;5.28;;;4.78;;
16029;SDS011;34770;49.272;11.070;2023-04-22T04:16:41;7.28;;;5.05;;
16029;SDS011;34770;49.272;11.070;2023-04-22T04:19:06;5.57;;;4.32;;
16029;SDS011;34770;49.272;11.070;2023-04-22T04:21:32;5.63;;;4.20;;
16029;SDS011;34770;49.272;11.070;2023-04-22T04:23:58;7.28;;;4.75;;
16029;SDS011;34770;49.272;11.070;2023-04-22T04:26:23;6.00;;;4.88;;
16029;SDS011;34770;49.272;11.070;2023-04-22T04:28:51;5.57;;;4.93;;
16029;SDS011;34770;49.272;11.070;2023-04-22T04:31:17;5.45;;;4.95;;
16029;SDS011;34770;49.272;11.070;2023-04-22T04:33:43;6.28;;;5.68;;
16029;SDS011;34770;49.272;11.070;2023-04-22T04:36:08;6.22;;;5.63;;
16029;SDS011;34770;49.272;11.070;2023-04-22T04:38:34;7.32;;;5.40;;
16029;SDS011;34770;49.272;11.070;2023-04-22T04:41:00;6.97;;;5.05;;
16029;SDS011;34770;49.272;11.070;2023-04-22T04:43:25;6.35;;;5.55;;
16029;SDS011;34770;49.272;11.070;2023-04-22T04:45:51;6.55;;;5.85;;
16029;SDS011;34770;49.272;11.070;2023-04-22T04:48:17;6.72;;;5.88;;
16029;SDS011;34770;49.272;11.070;2023-04-22T04:50:44;7.82;;;5.68;;
16029;SDS011;34770;49.272;11.070;2023-04-22T04:53:10;5.93;;;5.32;;
16029;SDS011;34770;49.272;11.070;2023-04-22T04:55:36;6.75;;;5.70;;
16029;SDS011;34770;49.272;11.070;2023-04-22T04:58:02;6.60;;;5.90;;
16029;SDS011;34770;49.272;11.070;2023-04-22T05:00:28;6.72;;;5.47;;
16029;SDS011;34770;49.272;11.070;2023-04-22T05:02:53;8.00;;;5.80;;
16029;SDS011;34770;49.272;11.070;2023-04-22T05:05:19;7.97;;;5.70;;
16029;SDS011;34770;49.272;11.070;2023-04-22T05:07:44;7.53;;;5.60;;
16029;SDS011;34770;49.272;11.070;2023-04-22T05:10:10;7.45;;;5.53;;
16029;SDS011;34770;49.272;11.070;2023-04-22T05:12:36;7.50;;;5.13;;
16029;SDS011;34770;49.272;11.070;2023-04-22T05:15:01;5.68;;;5.15;;
16029;SDS011;34770;49.272;11.070;2023-04-22T05:17:27;5.38;;;4.88;;
16029;SDS011;34770;49.272;11.070;2023-04-22T05:19:53;7.53;;;4.75;;
16029;SDS011;34770;49.272;11.070;2023-04-22T05:22:18;5.45;;;4.82;;
16029;SDS011;34770;49.272;11.070;2023-04-22T05:24:44;5.72;;;4.53;;
16029;SDS011;34770;49.272;11.070;2023-04-22T05:27:09;4.75;;;4.35;;
16029;SDS011;34770;49.272;11.070;2023-04-22T05:29:35;5.45;;;4.90;;
16029;SDS011;34770;49.272;11.070;2023-04-22T05:32:01;6.47;;;4.82;;
16029;SDS011;34770;49.272;11.070;2023-04-22T05:34:26;6.13;;;5.25;;
16029;SDS011;34770;49.272;11.070;2023-04-22T05:36:52;5.93;;;4.97;;
16029;SDS011;34770;49.272;11.070;2023-04-22T05:39:18;6.38;;;5.03;;
16029;SDS011;34770;49.272;11.070;2023-04-22T05:41:44;8.52;;;4.75;;
16029;SDS011;34770;49.272;11.070;2023-04-22T05:44:09;8.25;;;4.97;;
16029;SDS011;34770;49.272;11.070;2023-04-22T05:46:35;6.63;;;4.90;;
16029;SDS011;34770;49.272;11.070;2023-04-22T05:49:01;7.18;;;4.95;;
16029;SDS011;34770;49.272;11.070;2023-04-22T05:51:26;6.88;;;4.45;;
16029;SDS011;34770;49.272;11.070;2023-04-22T05:53:51;7.28;;;5.50;;
16029;SDS011;34770;49.272;11.070;2023-04-22T05:56:17;9.52;;;4.85;;
16029;SDS011;34770;49.272;11.070;2023-04-22T05:58:45;10.13;;;7.00;;
16029;SDS011;34770;49.272;11.070;2023-04-22T06:01:11;13.68;;;8.85;;
16029;SDS011;34770;49.272;11.070;2023-04-22T06:03:37;20.40;;;10.93;;
16029;SDS011;34770;49.272;11.070;2023-04-22T06:06:02;8.45;;;5.43;;
16029;SDS011;34770;49.272;11.070;2023-04-22T06:08:29;8.70;;;5.85;;
16029;SDS011;34770;49.272;11.070;2023-04-22T06:10:55;7.55;;;4.60;;
16029;SDS011;34770;49.272;11.070;2023-04-22T06:13:21;6.03;;;4.65;;
16029;SDS011;34770;49.272;11.070;2023-04-22T06:15:46;6.07;;;4.55;;
16029;SDS011;34770;49.272;11.070;2023-04-22T06:18:12;7.00;;;4.15;;
16029;SDS011;34770;49.272;11.070;2023-04-22T06:20:37;7.07;;;4.93;;
16029;SDS011;34770;49.272;11.070;2023-04-22T06:23:03;5.63;;;4.40;;
16029;SDS011;34770;49.272;11.070;2023-04-22T06:25:29;5.15;;;4.10;;
16029;SDS011;34770;49.272;11.070;2023-04-22T06:27:57;7.13;;;4.28;;
16029;SDS011;34770;49.272;11.070;2023-04-22T06:30:23;4.38;;;3.70;;
16029;SDS011;34770;49.272;11.070;2023-04-22T06:32:49;7.18;;;3.80;;
16029;SDS011;34770;49.272;11.070;2023-04-22T06:35:21;6.60;;;4.00;;
16029;SDS011;34770;49.272;11.070;2023-04-22T06:37:46;6.80;;;3.72;;
16029;SDS011;34770;49.272;11.070;2023-04-22T06:40:13;5.43;;;4.10;;
16029;SDS011;34770;49.272;11.070;2023-04-22T06:42:39;5.65;;;3.50;;
16029;SDS011;34770;49.272;11.070;2023-04-22T06:45:05;4.50;;;3.88;;
16029;SDS011;34770;49.272;11.070;2023-04-22T06:47:32;8.38;;;4.30;;
16029;SDS011;34770;49.272;11.070;2023-04-22T06:49:58;8.57;;;3.85;;
16029;SDS011;34770;49.272;11.070;2023-04-22T06:52:23;7.57;;;3.75;;
16029;SDS011;34770;49.272;11.070;2023-04-22T06:54:49;6.18;;;4.13;;
16029;SDS011;34770;49.272;11.070;2023-04-22T06:57:14;11.10;;;4.05;;
16029;SDS011;34770;49.272;11.070;2023-04-22T06:59:40;5.43;;;3.65;;
16029;SDS011;34770;49.272;11.070;2023-04-22T07:02:05;6.53;;;3.58;;
16029;SDS011;34770;49.272;11.070;2023-04-22T07:04:31;7.28;;;3.72;;
16029;SDS011;34770;49.272;11.070;2023-04-22T07:06:56;6.57;;;3.97;;
16029;SDS011;34770;49.272;11.070;2023-04-22T07:09:22;8.02;;;4.18;;
16029;SDS011;34770;49.272;11.070;2023-04-22T07:11:48;4.72;;;3.45;;
16029;SDS011;34770;49.272;11.070;2023-04-22T07:14:13;10.02;;;4.50;;
16029;SDS011;34770;49.272;11.070;2023-04-22T07:16:39;4.63;;;3.47;;
16029;SDS011;34770;49.272;11.070;2023-04-22T07:19:04;7.00;;;3.78;;
16029;SDS011;34770;49.272;11.070;2023-04-22T07:21:32;5.68;;;4.07;;
16029;SDS011;34770;49.272;11.070;2023-04-22T07:23:58;5.35;;;4.10;;
16029;SDS011;34770;49.272;11.070;2023-04-22T07:26:23;8.15;;;3.90;;
16029;SDS011;34770;49.272;11.070;2023-04-22T07:28:49;3.92;;;3.28;;
16029;SDS011;34770;49.272;11.070;2023-04-22T07:31:15;5.72;;;4.57;;
16029;SDS011;34770;49.272;11.070;2023-04-22T07:33:40;4.30;;;3.22;;
16029;SDS011;34770;49.272;11.070;2023-04-22T07:36:06;7.43;;;4.03;;
16029;SDS011;34770;49.272;11.070;2023-04-22T07:38:32;5.07;;;3.78;;
16029;SDS011;34770;49.272;11.070;2023-04-22T07:40:57;7.13;;;4.22;;
16029;SDS011;34770;49.272;11.070;2023-04-22T07:43:22;4.88;;;3.65;;
16029;SDS011;34770;49.272;11.070;2023-04-22T07:45:48;11.30;;;4.22;;
16029;SDS011;34770;49.272;11.070;2023-04-22T07:48:13;4.43;;;3.63;;
16029;SDS011;34770;49.272;11.070;2023-04-22T07:50:39;5.43;;;3.30;;
16029;SDS011;34770;49.272;11.070;2023-04-22T07:53:04;7.15;;;4.15;;
16029;SDS011;34770;49.272;11.070;2023-04-22T07:55:30;7.00;;;3.70;;
16029;SDS011;34770;49.272;11.070;2023-04-22T07:57:56;9.00;;;4.10;;
16029;SDS011;34770;49.272;11.070;2023-04-22T08:00:24;4.05;;;3.40;;
16029;SDS011;34770;49.272;11.070;2023-04-22T08:02:49;5.70;;;3.80;;
16029;SDS011;34770;49.272;11.070;2023-04-22T08:05:15;5.72;;;3.55;;
16029;SDS011;34770;49.272;11.070;2023-04-22T08:07:40;4.43;;;4.03;;
16029;SDS011;34770;49.272;11.070;2023-04-22T08:10:06;4.28;;;3.45;;
16029;SDS011;34770;49.272;11.070;2023-04-22T08:12:32;5.38;;;3.97;;
16029;SDS011;34770;49.272;11.070;2023-04-22T08:14:57;5.43;;;3.50;;
16029;SDS011;34770;49.272;11.070;2023-04-22T08:17:23;4.78;;;3.55;;
16029;SDS011;34770;49.272;11.070;2023-04-22T08:19:48;3.70;;;3.22;;
16029;SDS011;34770;49.272;11.070;2023-04-22T08:22:14;6.60;;;3.63;;
16029;SDS011;34770;49.272;11.070;2023-04-22T08:24:41;6.30;;;3.10;;
16029;SDS011;34770;49.272;11.070;2023-04-22T08:27:07;10.52;;;3.35;;
16029;SDS011;34770;49.272;11.070;2023-04-22T08:29:32;5.65;;;3.78;;
16029;SDS011;34770;49.272;11.070;2023-04-22T08:31:58;7.03;;;3.42;;
16029;SDS011;34770;49.272;11.070;2023-04-22T08:34:23;4.30;;;3.80;;
16029;SDS011;34770;49.272;11.070;2023-04-22T08:36:50;6.05;;;3.30;;
16029;SDS011;34770;49.272;11.070;2023-04-22T08:39:15;4.18;;;3.33;;
16029;SDS011;34770;49.272;11.070;2023-04-22T08:41:42;4.68;;;3.72;;
16029;SDS011;34770;49.272;11.070;2023-04-22T08:44:09;11.27;;;3.95;;
16029;SDS011;34770;49.272;11.070;2023-04-22T08:46:35;4.32;;;3.30;;
16029;SDS011;34770;49.272;11.070;2023-04-22T08:49:01;5.72;;;3.50;;
16029;SDS011;34770;49.272;11.070;2023-04-22T08:51:28;6.28;;;3.33;;
16029;SDS011;34770;49.272;11.070;2023-04-22T08:53:57;3.17;;;2.88;;
16029;SDS011;34770;49.272;11.070;2023-04-22T08:56:23;5.28;;;3.10;;
16029;SDS011;34770;49.272;11.070;2023-04-22T08:58:49;3.63;;;3.00;;
16029;SDS011;34770;49.272;11.070;2023-04-22T09:01:16;4.25;;;2.80;;
16029;SDS011;34770;49.272;11.070;2023-04-22T09:03:43;4.38;;;2.72;;
16029;SDS011;34770;49.272;11.070;2023-04-22T09:06:09;6.32;;;3.03;;
16029;SDS011;34770;49.272;11.070;2023-04-22T09:08:35;5.85;;;2.90;;
16029;SDS011;34770;49.272;11.070;2023-04-22T09:11:01;7.22;;;3.08;;
16029;SDS011;34770;49.272;11.070;2023-04-22T09:13:28;5.78;;;3.13;;
16029;SDS011;34770;49.272;11.070;2023-04-22T09:15:53;6.03;;;3.03;;
16029;SDS011;34770;49.272;11.070;2023-04-22T09:18:19;5.22;;;2.95;;
16029;SDS011;34770;49.272;11.070;2023-04-22T09:20:48;3.83;;;2.83;;
16029;SDS011;34770;49.272;11.070;2023-04-22T09:23:14;3.38;;;2.90;;
16029;SDS011;34770;49.272;11.070;2023-04-22T09:25:41;3.67;;;2.83;;
16029;SDS011;34770;49.272;11.070;2023-04-22T09:28:16;4.00;;;2.83;;
16029;SDS011;34770;49.272;11.070;2023-04-22T09:30:43;4.50;;;2.97;;
16029;SDS011;34770;49.272;11.070;2023-04-22T09:33:10;6.13;;;2.80;;
16029;SDS011;34770;49.272;11.070;2023-04-22T09:35:38;4.40;;;2.50;;
16029;SDS011;34770;49.272;11.070;2023-04-22T09:38:06;2.60;;;2.40;;
16029;SDS011;34770;49.272;11.070;2023-04-22T09:40:33;6.35;;;2.72;;
16029;SDS011;34770;49.272;11.070;2023-04-22T09:43:07;4.90;;;2.63;;
16029;SDS011;34770;49.272;11.070;2023-04-22T09:45:37;3.70;;;2.70;;
16029;SDS011;34770;49.272;11.070;2023-04-22T09:48:06;2.80;;;2.60;;
16029;SDS011;34770;49.272;11.070;2023-04-22T09:50:34;4.18;;;3.00;;
16029;SDS011;34770;49.272;11.070;2023-04-22T09:53:02;3.35;;;2.38;;
16029;SDS011;34770;49.272;11.070;2023-04-22T09:55:30;3.15;;;2.33;;
16029;SDS011;34770;49.272;11.070;2023-04-22T09:58:03;4.13;;;2.40;;
16029;SDS011;34770;49.272;11.070;2023-04-22T10:00:35;5.78;;;2.90;;
16029;SDS011;34770;49.272;11.070;2023-04-22T10:03:04;2.75;;;2.55;;
16029;SDS011;34770;49.272;11.070;2023-04-22T10:05:31;2.55;;;2.33;;
16029;SDS011;34770;49.272;11.070;2023-04-22T10:08:01;4.43;;;2.50;;
16029;SDS011;34770;49.272;11.070;2023-04-22T10:10:28;3.55;;;2.20;;
16029;SDS011;34770;49.272;11.070;2023-04-22T10:12:53;4.55;;;2.42;;
16029;SDS011;34770;49.272;11.070;2023-04-22T10:15:19;3.92;;;2.30;;
16029;SDS011;34770;49.272;11.070;2023-04-22T10:17:45;3.38;;;2.55;;
16029;SDS011;34770;49.272;11.070;2023-04-22T10:20:11;2.85;;;2.55;;
16029;SDS011;34770;49.272;11.070;2023-04-22T10:22:41;4.15;;;2.60;;
16029;SDS011;34770;49.272;11.070;2023-04-22T10:25:11;4.93;;;2.25;;
16029;SDS011;34770;49.272;11.070;2023-04-22T10:27:51;2.33;;;2.13;;
16029;SDS011;34770;49.272;11.070;2023-04-22T10:30:27;5.55;;;2.63;;
16029;SDS011;34770;49.272;11.070;2023-04-22T10:32:54;2.50;;;2.30;;
16029;SDS011;34770;49.272;11.070;2023-04-22T10:35:25;3.22;;;2.38;;
16029;SDS011;34770;49.272;11.070;2023-04-22T10:37:54;2.78;;;2.30;;
16029;SDS011;34770;49.272;11.070;2023-04-22T10:40:20;2.88;;;2.20;;
16029;SDS011;34770;49.272;11.070;2023-04-22T10:42:50;4.68;;;2.17;;
16029;SDS011;34770;49.272;11.070;2023-04-22T10:45:17;2.92;;;2.45;;
16029;SDS011;34770;49.272;11.070;2023-04-22T10:47:43;3.72;;;2.40;;
16029;SDS011;34770;49.272;11.070;2023-04-22T10:50:22;2.85;;;2.08;;
16029;SDS011;34770;49.272;11.070;2023-04-22T10:52:55;5.80;;;2.55;;
16029;SDS011;34770;49.272;11.070;2023-04-22T10:55:48;2.72;;;2.45;;
16029;SDS011;34770;49.272;11.070;2023-04-22T10:58:19;3.30;;;2.38;;
16029;SDS011;34770;49.272;11.070;2023-04-22T11:00:45;2.65;;;2.45;;
16029;SDS011;34770;49.272;11.070;2023-04-22T11:03:12;4.18;;;2.58;;
16029;SDS011;34770;49.272;11.070;2023-04-22T11:05:39;2.90;;;2.05;;
16029;SDS011;34770;49.272;11.070;2023-04-22T11:08:07;2.47;;;2.22;;
16029;SDS011;34770;49.272;11.070;2023-04-22T11:10:40;2.83;;;2.25;;
16029;SDS011;34770;49.272;11.070;2023-04-22T11:13:08;3.00;;;2.30;;
16029;SDS011;34770;49.272;11.070;2023-04-22T11:15:36;4.18;;;2.45;;
16029;SDS011;34770;49.272;11.070;2023-04-22T11:18:06;3.05;;;1.98;;
16029;SDS011;34770;49.272;11.070;2023-04-22T11:20:33;4.22;;;1.92;;
16029;SDS011;34770;49.272;11.070;2023-04-22T11:22:59;2.25;;;2.05;;
16029;SDS011;34770;49.272;11.070;2023-04-22T11:25:26;8.68;;;2.17;;
16029;SDS011;34770;49.272;11.070;2023-04-22T11:27:52;2.65;;;1.88;;
16029;SDS011;34770;49.272;11.070;2023-04-22T11:30:23;2.20;;;1.77;;
16029;SDS011;34770;49.272;11.070;2023-04-22T11:32:52;4.43;;;2.05;;
16029;SDS011;34770;49.272;11.070;2023-04-22T11:37:58;1.67;;;1.58;;
16029;SDS011;34770;49.272;11.070;2023-04-22T11:40:26;2.92;;;1.70;;
16029;SDS011;34770;49.272;11.070;2023-04-22T11:42:57;2.20;;;2.00;;
16029;SDS011;34770;49.272;11.070;2023-04-22T11:45:24;1.90;;;1.80;;
16029;SDS011;34770;49.272;11.070;2023-04-22T11:47:50;1.83;;;1.67;;
16029;SDS011;34770;49.272;11.070;2023-04-22T11:50:17;6.43;;;2.22;;
16029;SDS011;34770;49.272;11.070;2023-04-22T11:55:12;1.77;;;1.67;;
16029;SDS011;34770;49.272;11.070;2023-04-22T11:57:44;2.03;;;1.80;;
16029;SDS011;34770;49.272;11.070;2023-04-22T12:00:10;2.58;;;1.80;;
16029;SDS011;34770;49.272;11.070;2023-04-22T12:02:39;1.92;;;1.73;;
16029;SDS011;34770;49.272;11.070;2023-04-22T12:05:09;5.75;;;2.00;;
16029;SDS011;34770;49.272;11.070;2023-04-22T12:07:36;2.80;;;2.03;;
16029;SDS011;34770;49.272;11.070;2023-04-22T12:10:03;4.22;;;2.05;;
16029;SDS011;34770;49.272;11.070;2023-04-22T12:12:31;2.00;;;1.80;;
16029;SDS011;34770;49.272;11.070;2023-04-22T12:15:05;2.15;;;1.60;;
16029;SDS011;34770;49.272;11.070;2023-04-22T12:17:33;2.65;;;1.83;;
16029;SDS011;34770;49.272;11.070;2023-04-22T12:19:58;2.63;;;1.65;;
16029;SDS011;34770;49.272;11.070;2023-04-22T12:22:27;2.78;;;2.38;;
16029;SDS011;34770;49.272;11.070;2023-04-22T12:24:57;2.35;;;1.92;;
16029;SDS011;34770;49.272;11.070;2023-04-22T12:27:23;2.15;;;2.05;;
16029;SDS011;34770;49.272;11.070;2023-04-22T12:29:52;2.15;;;1.88;;
16029;SDS011;34770;49.272;11.070;2023-04-22T12:32:23;2.60;;;1.58;;
16029;SDS011;34770;49.272;11.070;2023-04-22T12:34:50;3.90;;;1.60;;
16029;SDS011;34770;49.272;11.070;2023-04-22T12:37:16;2.13;;;1.40;;
16029;SDS011;34770;49.272;11.070;2023-04-22T12:39:45;2.05;;;1.52;;
16029;SDS011;34770;49.272;11.070;2023-04-22T12:42:11;2.40;;;1.15;;
16029;SDS011;34770;49.272;11.070;2023-04-22T12:44:36;3.28;;;1.42;;
16029;SDS011;34770;49.272;11.070;2023-04-22T12:47:02;2.03;;;1.40;;
16029;SDS011;34770;49.272;11.070;2023-04-22T12:49:28;2.00;;;1.38;;
16029;SDS011;34770;49.272;11.070;2023-04-22T12:51:53;1.60;;;1.50;;
16029;SDS011;34770;49.272;11.070;2023-04-22T12:54:20;3.33;;;1.45;;
16029;SDS011;34770;49.272;11.070;2023-04-22T12:56:46;2.08;;;1.60;;
16029;SDS011;34770;49.272;11.070;2023-04-22T12:59:12;1.80;;;1.70;;
16029;SDS011;34770;49.272;11.070;2023-04-22T13:01:38;1.50;;;1.40;;
16029;SDS011;34770;49.272;11.070;2023-04-22T13:04:04;1.35;;;1.25;;
16029;SDS011;34770;49.272;11.070;2023-04-22T13:06:29;2.25;;;1.88;;
16029;SDS011;34770;49.272;11.070;2023-04-22T13:08:56;1.70;;;1.60;;
16029;SDS011;34770;49.272;11.070;2023-04-22T13:11:23;2.40;;;1.60;;
16029;SDS011;34770;49.272;11.070;2023-04-22T13:13:49;2.20;;;1.70;;
16029;SDS011;34770;49.272;11.070;2023-04-22T13:16:15;2.25;;;1.70;;
16029;SDS011;34770;49.272;11.070;2023-04-22T13:18:41;1.20;;;1.10;;
16029;SDS011;34770;49.272;11.070;2023-04-22T13:21:06;2.35;;;1.80;;
16029;SDS011;34770;49.272;11.070;2023-04-22T13:23:32;1.42;;;1.33;;
16029;SDS011;34770;49.272;11.070;2023-04-22T13:25:58;1.60;;;1.50;;
16029;SDS011;34770;49.272;11.070;2023-04-22T13:28:23;3.47;;;1.23;;
16029;SDS011;34770;49.272;11.070;2023-04-22T13:30:50;3.33;;;1.50;;
16029;SDS011;34770;49.272;11.070;2023-04-22T13:33:15;1.83;;;1.50;;
16029;SDS011;34770;49.272;11.070;2023-04-22T13:35:41;1.30;;;1.20;;
16029;SDS011;34770;49.272;11.070;2023-04-22T13:38:07;1.50;;;1.40;;
16029;SDS011;34770;49.272;11.070;2023-04-22T13:40:33;1.60;;;1.50;;
16029;SDS011;34770;49.272;11.070;2023-04-22T13:42:59;1.38;;;1.27;;
16029;SDS011;34770;49.272;11.070;2023-04-22T13:45:24;4.07;;;1.70;;
16029;SDS011;34770;49.272;11.070;2023-04-22T13:47:50;1.58;;;1.38;;
16029;SDS011;34770;49.272;11.070;2023-04-22T13:50:16;1.60;;;1.35;;
16029;SDS011;34770;49.272;11.070;2023-04-22T13:52:42;1.95;;;1.30;;
16029;SDS011;34770;49.272;11.070;2023-04-22T13:55:08;3.30;;;1.42;;
16029;SDS011;34770;49.272;11.070;2023-04-22T13:57:35;1.30;;;1.20;;
16029;SDS011;34770;49.272;11.070;2023-04-22T14:00:10;2.80;;;1.75;;
16029;SDS011;34770;49.272;11.070;2023-04-22T14:02:36;3.40;;;1.60;;
16029;SDS011;34770;49.272;11.070;2023-04-22T14:05:02;1.63;;;1.40;;
16029;SDS011;34770;49.272;11.070;2023-04-22T14:07:28;2.92;;;1.20;;
16029;SDS011;34770;49.272;11.070;2023-04-22T14:09:53;3.50;;;1.60;;
16029;SDS011;34770;49.272;11.070;2023-04-22T14:12:19;1.52;;;1.27;;
16029;SDS011;34770;49.272;11.070;2023-04-22T14:14:44;3.25;;;1.33;;
16029;SDS011;34770;49.272;11.070;2023-04-22T14:17:10;2.45;;;1.38;;
16029;SDS011;34770;49.272;11.070;2023-04-22T14:19:36;2.65;;;1.58;;
16029;SDS011;34770;49.272;11.070;2023-04-22T14:22:03;2.30;;;1.52;;
16029;SDS011;34770;49.272;11.070;2023-04-22T14:24:28;2.97;;;1.83;;
16029;SDS011;34770;49.272;11.070;2023-04-22T14:26:54;3.15;;;1.30;;
16029;SDS011;34770;49.272;11.070;2023-04-22T14:29:25;1.20;;;1.10;;
16029;SDS011;34770;49.272;11.070;2023-04-22T14:31:53;3.25;;;1.30;;
16029;SDS011;34770;49.272;11.070;2023-04-22T14:34:19;1.60;;;1.38;;